Time;durP1;ratioP1;P1;durP2;ratioP2;P2;SDS_P1;SDS_P2;PMS_P1;PMS_P2;Temp;Humidity;BMP_temperature;BMP_pressure;BME280_temperature;BME280_humidity;BME280_pressure;Samples;Min_cycle;Max_cycle;Signal;HPM_P1;HPM_P2
2021/10/02 00:35:33;;;;;;;24.83;18.03;;;13.20;99.90;;;;;;4990460;28;20050;-80
2021/10/02 00:41:14;;;;;;;25.88;17.30;;;13.20;99.90;;;;;;4912369;29;20049;-80
2021/10/02 00:46:27;;;;;;;29.42;16.85;;;13.20;99.90;;;;;;4975485;28;20050;-80
2021/10/02 00:48:53;;;;;;;24.00;16.92;;;13.10;99.90;;;;;;4974706;28;20057;-81
2021/10/02 00:51:20;;;;;;;24.60;16.27;;;13.20;99.90;;;;;;4959212;28;20046;-81
2021/10/02 00:53:45;;;;;;;22.25;16.80;;;13.20;99.90;;;;;;4975380;28;20042;-81
2021/10/02 00:56:11;;;;;;;23.42;16.00;;;13.10;99.90;;;;;;4977577;28;20240;-81
2021/10/02 00:58:43;;;;;;;28.50;17.45;;;13.10;99.90;;;;;;4955983;28;20953;-81
2021/10/02 01:01:09;;;;;;;20.33;16.35;;;13.30;99.90;;;;;;4972372;28;20122;-81
2021/10/02 01:03:54;;;;;;;23.45;17.02;;;13.10;99.90;;;;;;4965576;28;20484;-81
2021/10/02 01:06:23;;;;;;;31.30;17.85;;;13.20;99.90;;;;;;4973599;28;20078;-81
2021/10/02 01:09:14;;;;;;;24.48;17.27;;;13.00;99.90;;;;;;4975098;28;20047;-80
2021/10/02 01:12:02;;;;;;;25.50;17.63;;;13.00;99.90;;;;;;4980592;28;20049;-80
2021/10/02 01:14:48;;;;;;;26.83;18.70;;;13.00;99.90;;;;;;4960556;28;20054;-80
2021/10/02 01:17:36;;;;;;;26.35;18.10;;;13.00;99.90;;;;;;4991533;28;20052;-80
2021/10/02 01:20:46;;;;;;;25.33;17.98;;;12.90;99.90;;;;;;5053243;28;20044;-80
2021/10/02 01:23:33;;;;;;;29.33;19.02;;;12.90;99.90;;;;;;5054698;28;20045;-80
2021/10/02 01:26:13;;;;;;;28.33;18.73;;;12.90;99.90;;;;;;5053196;28;20032;-81
2021/10/02 01:28:40;;;;;;;34.03;20.60;;;12.90;99.90;;;;;;5043851;28;20033;-81
2021/10/02 01:36:43;;;;;;;29.50;19.90;;;12.90;99.90;;;;;;5052995;28;20219;-81
2021/10/02 01:47:32;;;;;;;28.92;19.15;;;12.80;99.90;;;;;;5052080;28;20517;-82
2021/10/02 01:49:58;;;;;;;28.50;20.30;;;12.80;99.90;;;;;;5051989;28;20071;-78
2021/10/02 01:52:37;;;;;;;34.05;21.60;;;12.70;99.90;;;;;;5052603;28;20048;-79
2021/10/02 01:55:05;;;;;;;25.33;19.75;;;12.70;99.90;;;;;;5048524;28;20059;-79
2021/10/02 01:57:35;;;;;;;31.65;20.63;;;12.60;99.90;;;;;;5052775;28;20422;-80
2021/10/02 02:00:07;;;;;;;29.63;21.17;;;12.60;99.90;;;;;;5035552;28;20128;-80
2021/10/02 02:02:35;;;;;;;35.92;20.45;;;12.50;99.90;;;;;;5054445;28;20503;-80
2021/10/02 02:05:04;;;;;;;29.52;21.48;;;12.50;99.90;;;;;;5066721;28;20033;-80
2021/10/02 02:07:32;;;;;;;33.95;22.48;;;12.50;99.90;;;;;;5052622;28;20068;-80
2021/10/02 02:09:59;;;;;;;35.78;22.77;;;12.50;99.90;;;;;;5053119;28;20040;-80
2021/10/02 02:12:32;;;;;;;33.03;21.35;;;12.50;99.90;;;;;;5057014;28;20132;-80
2021/10/02 02:15:04;;;;;;;29.48;21.35;;;12.50;99.90;;;;;;5036119;28;20082;-80
2021/10/02 02:17:32;;;;;;;33.17;21.10;;;12.50;99.90;;;;;;5052872;28;20400;-80
2021/10/02 02:20:01;;;;;;;32.47;22.23;;;12.50;99.90;;;;;;5051428;28;20064;-80
2021/10/02 02:22:27;;;;;;;34.92;22.02;;;12.50;99.90;;;;;;5052341;28;20029;-80
2021/10/02 02:24:52;;;;;;;34.17;24.27;;;12.50;99.90;;;;;;5052564;28;20345;-81
2021/10/02 02:27:18;;;;;;;31.00;22.60;;;12.40;99.90;;;;;;5052401;28;21789;-80
2021/10/02 02:29:44;;;;;;;38.33;23.35;;;12.50;99.90;;;;;;5053160;28;20048;-80
2021/10/02 02:32:10;;;;;;;32.88;22.70;;;12.60;99.90;;;;;;5036033;28;20516;-80
2021/10/02 02:34:37;;;;;;;36.33;24.23;;;12.60;99.90;;;;;;5051491;28;20082;-80
2021/10/02 02:37:03;;;;;;;30.77;23.55;;;12.60;99.90;;;;;;5051597;28;20480;-80
2021/10/02 02:39:29;;;;;;;35.38;23.33;;;12.60;99.90;;;;;;5034849;28;20036;-80
2021/10/02 02:41:55;;;;;;;33.50;23.67;;;12.60;99.90;;;;;;5070405;28;20054;-80
2021/10/02 02:44:21;;;;;;;36.45;25.35;;;12.60;99.90;;;;;;5052379;28;20042;-80
2021/10/02 02:46:55;;;;;;;36.95;24.67;;;12.60;99.90;;;;;;5051984;28;20032;-80
2021/10/02 02:49:36;;;;;;;37.10;25.47;;;12.60;99.90;;;;;;5034509;28;20052;-80
2021/10/02 02:52:08;;;;;;;35.53;25.45;;;12.60;99.90;;;;;;5068465;28;20144;-79
2021/10/02 02:54:45;;;;;;;39.45;26.67;;;12.60;99.90;;;;;;5051300;28;20087;-80
2021/10/02 02:57:16;;;;;;;41.17;24.85;;;12.60;99.90;;;;;;5069759;28;20040;-80
2021/10/02 02:59:51;;;;;;;40.25;26.02;;;12.60;99.90;;;;;;5051730;28;20048;-81
2021/10/02 03:02:20;;;;;;;43.83;25.55;;;12.70;99.90;;;;;;5048902;28;20041;-80
2021/10/02 03:04:47;;;;;;;42.47;26.15;;;12.60;99.90;;;;;;5067640;28;20036;-80
2021/10/02 03:07:18;;;;;;;35.17;24.83;;;12.60;99.90;;;;;;5061076;28;20132;-80
2021/10/02 03:09:47;;;;;;;37.90;24.50;;;12.50;99.90;;;;;;5053213;28;20045;-80
2021/10/02 03:12:14;;;;;;;36.80;24.23;;;12.50;99.90;;;;;;5041537;28;20360;-81
2021/10/02 03:14:45;;;;;;;35.50;23.70;;;12.50;99.90;;;;;;5031797;28;20040;-80
2021/10/02 03:17:13;;;;;;;32.10;23.52;;;12.50;99.90;;;;;;5046301;28;20180;-80
2021/10/02 03:19:40;;;;;;;33.13;23.52;;;12.40;99.90;;;;;;5047673;28;20068;-80
2021/10/02 03:22:07;;;;;;;38.83;24.25;;;12.40;99.90;;;;;;5035954;28;20431;-80
2021/10/02 03:24:37;;;;;;;40.65;24.98;;;12.40;99.90;;;;;;5040121;28;20045;-80
2021/10/02 03:27:06;;;;;;;51.53;26.98;;;12.40;99.90;;;;;;5037375;28;20044;-81
2021/10/02 03:29:34;;;;;;;39.33;24.95;;;12.40;99.90;;;;;;5035519;28;20037;-80
2021/10/02 03:32:03;;;;;;;36.90;23.80;;;12.70;99.90;;;;;;5056614;28;20041;-80
2021/10/02 03:34:29;;;;;;;36.00;24.45;;;12.50;99.90;;;;;;5038212;28;20049;-80
2021/10/02 03:36:55;;;;;;;39.80;24.15;;;12.50;99.90;;;;;;5033685;28;20155;-81
2021/10/02 03:39:21;;;;;;;39.60;24.38;;;12.50;99.90;;;;;;5035629;28;20211;-80
2021/10/02 03:42:14;;;;;;;38.30;23.83;;;12.40;99.90;;;;;;5036206;28;20045;-79
2021/10/02 03:44:45;;;;;;;37.42;24.20;;;12.50;99.90;;;;;;5034097;28;20098;-80
2021/10/02 03:47:13;;;;;;;41.05;23.63;;;12.50;99.90;;;;;;5055387;28;20071;-81
2021/10/02 03:49:39;;;;;;;39.90;24.02;;;12.50;99.90;;;;;;5052025;28;20392;-80
2021/10/02 03:52:06;;;;;;;43.80;25.08;;;12.40;99.90;;;;;;5035747;28;20133;-81
2021/10/02 03:54:34;;;;;;;34.13;23.60;;;12.40;99.90;;;;;;5035662;28;20506;-80
2021/10/02 03:57:00;;;;;;;42.40;23.77;;;12.40;99.90;;;;;;5038835;28;20037;-81
2021/10/02 03:59:26;;;;;;;44.10;25.77;;;12.40;99.90;;;;;;5035820;28;20033;-81
2021/10/02 04:01:52;;;;;;;34.25;22.95;;;12.30;99.90;;;;;;5039829;28;20036;-80
2021/10/02 04:04:18;;;;;;;28.38;20.83;;;12.30;99.90;;;;;;5031904;28;20069;-80
2021/10/02 04:06:44;;;;;;;37.33;23.70;;;12.20;99.90;;;;;;5048595;28;20053;-81
2021/10/02 04:09:09;;;;;;;49.28;23.92;;;12.20;99.90;;;;;;5055093;28;20067;-81
2021/10/02 04:11:35;;;;;;;40.45;23.48;;;12.20;99.90;;;;;;5053965;28;20040;-80
2021/10/02 04:14:03;;;;;;;32.22;21.58;;;12.10;99.90;;;;;;5054775;28;20115;-81
2021/10/02 04:16:30;;;;;;;39.08;23.80;;;12.20;99.90;;;;;;5036839;28;20136;-80
2021/10/02 04:18:57;;;;;;;32.53;21.92;;;12.10;99.90;;;;;;5072022;28;20044;-81
2021/10/02 04:21:23;;;;;;;36.30;24.48;;;12.20;99.90;;;;;;5054252;28;20032;-81
2021/10/02 04:23:50;;;;;;;37.88;24.10;;;12.20;99.90;;;;;;5054839;28;20052;-81
2021/10/02 04:26:16;;;;;;;41.08;25.30;;;12.20;99.90;;;;;;5054912;28;20051;-81
2021/10/02 04:28:42;;;;;;;48.78;26.08;;;12.20;99.90;;;;;;5055121;28;20482;-81
2021/10/02 04:31:08;;;;;;;48.03;27.35;;;12.30;99.90;;;;;;5071528;28;20126;-81
2021/10/02 04:33:35;;;;;;;42.95;25.83;;;12.30;99.90;;;;;;5053542;28;20059;-81
2021/10/02 04:36:01;;;;;;;41.83;24.83;;;12.30;99.90;;;;;;5034643;28;20125;-81
2021/10/02 04:38:27;;;;;;;47.95;26.95;;;12.30;99.90;;;;;;5052584;28;20379;-82
2021/10/02 04:40:55;;;;;;;40.60;25.13;;;12.30;99.90;;;;;;5071562;28;20056;-81
2021/10/02 04:43:22;;;;;;;45.45;26.17;;;12.30;99.90;;;;;;5054213;28;20032;-81
2021/10/02 04:45:48;;;;;;;41.65;26.77;;;12.30;99.90;;;;;;5038728;28;20044;-79
2021/10/02 04:48:14;;;;;;;42.17;26.15;;;12.30;99.90;;;;;;5053856;28;20051;-81
2021/10/02 04:50:40;;;;;;;44.05;25.67;;;12.40;99.90;;;;;;5053612;28;20032;-80
2021/10/02 04:53:07;;;;;;;50.55;26.48;;;12.30;99.90;;;;;;5037950;28;20141;-80
2021/10/02 04:55:32;;;;;;;48.47;26.58;;;12.30;99.90;;;;;;5054562;28;20379;-80
2021/10/02 04:57:58;;;;;;;42.97;26.92;;;12.30;99.90;;;;;;5036342;28;20048;-80
2021/10/02 05:00:24;;;;;;;43.97;27.83;;;12.30;99.90;;;;;;5040722;28;20509;-79
2021/10/02 05:02:50;;;;;;;48.67;28.23;;;12.30;99.90;;;;;;5054777;28;20064;-80
2021/10/02 05:05:15;;;;;;;53.28;29.08;;;12.30;99.90;;;;;;5071006;28;20444;-80
2021/10/02 05:07:41;;;;;;;39.47;25.33;;;12.50;99.90;;;;;;5051381;28;20045;-80
2021/10/02 05:10:08;;;;;;;25.55;14.93;;;12.40;99.90;;;;;;5033036;28;20075;-79
2021/10/02 05:12:33;;;;;;;46.70;27.25;;;12.30;99.90;;;;;;5032071;28;20052;-78
2021/10/02 05:14:59;;;;;;;46.03;27.63;;;12.30;99.90;;;;;;5049455;28;20538;-79
2021/10/02 05:17:25;;;;;;;45.08;26.58;;;12.30;99.90;;;;;;5061866;28;20045;-79
2021/10/02 05:19:54;;;;;;;52.10;28.48;;;12.30;99.90;;;;;;5028005;28;20103;-77
2021/10/02 05:22:20;;;;;;;48.63;28.08;;;12.30;99.90;;;;;;5031718;28;20035;-79
2021/10/02 05:24:46;;;;;;;46.28;27.92;;;12.30;99.90;;;;;;5049937;28;20063;-79
2021/10/02 05:27:12;;;;;;;40.80;26.33;;;12.30;99.90;;;;;;5066515;28;20049;-80
2021/10/02 05:29:42;;;;;;;47.35;29.00;;;12.30;99.90;;;;;;5066794;28;20411;-80
2021/10/02 05:32:09;;;;;;;44.25;28.13;;;12.30;99.90;;;;;;5026497;28;20349;-79
2021/10/02 05:34:35;;;;;;;40.90;28.02;;;12.30;99.90;;;;;;5050013;28;20052;-80
2021/10/02 05:37:01;;;;;;;46.22;28.35;;;12.30;99.90;;;;;;5044400;28;20033;-80
2021/10/02 05:39:26;;;;;;;43.72;27.90;;;12.30;99.90;;;;;;5051707;28;20048;-79
2021/10/02 05:41:53;;;;;;;44.70;28.33;;;12.30;99.90;;;;;;5050771;28;20135;-78
2021/10/02 05:44:18;;;;;;;42.92;27.10;;;12.30;99.90;;;;;;5051631;28;20036;-78
2021/10/02 05:46:44;;;;;;;47.20;27.50;;;12.30;99.90;;;;;;5051610;28;20124;-78
2021/10/02 05:49:10;;;;;;;42.22;26.65;;;12.30;99.90;;;;;;5048115;28;20029;-78
2021/10/02 05:51:36;;;;;;;38.83;25.52;;;12.30;99.90;;;;;;5060030;28;20848;-79
2021/10/02 05:54:02;;;;;;;37.25;25.50;;;12.30;99.90;;;;;;5041297;28;20358;-80
2021/10/02 05:56:28;;;;;;;41.13;25.65;;;12.30;99.90;;;;;;5050336;28;20503;-80
2021/10/02 05:58:54;;;;;;;41.88;25.23;;;12.30;99.90;;;;;;5048269;28;20045;-80
2021/10/02 06:01:20;;;;;;;40.95;26.60;;;12.30;99.90;;;;;;5035369;28;20496;-80
2021/10/02 06:03:46;;;;;;;45.95;26.27;;;12.40;99.90;;;;;;5049715;28;20041;-80
2021/10/02 06:06:13;;;;;;;35.28;24.30;;;12.30;99.90;;;;;;5065620;28;20519;-79
2021/10/02 06:08:38;;;;;;;35.80;24.85;;;12.30;99.90;;;;;;5048871;28;20495;-77
2021/10/02 06:11:04;;;;;;;38.67;24.90;;;12.30;99.90;;;;;;5048989;28;20186;-77
2021/10/02 06:13:32;;;;;;;39.17;24.40;;;12.30;99.90;;;;;;5033018;28;20037;-77
2021/10/02 06:16:02;;;;;;;37.83;23.58;;;12.30;99.90;;;;;;5050220;28;20037;-79
2021/10/02 06:18:28;;;;;;;34.45;23.00;;;12.30;99.90;;;;;;5049169;28;20111;-79
2021/10/02 06:20:54;;;;;;;35.25;22.27;;;12.30;99.90;;;;;;5049553;28;20182;-78
2021/10/02 06:23:21;;;;;;;40.17;24.73;;;12.30;99.90;;;;;;5049363;28;20132;-78
2021/10/02 06:25:48;;;;;;;33.63;23.08;;;12.30;99.90;;;;;;5049536;28;20029;-79
2021/10/02 06:28:14;;;;;;;33.55;23.17;;;12.30;99.90;;;;;;5049756;28;20128;-78
2021/10/02 06:30:40;;;;;;;36.90;23.35;;;12.30;99.90;;;;;;5030444;28;20132;-80
2021/10/02 06:33:06;;;;;;;35.28;23.85;;;12.30;99.90;;;;;;5049544;28;20052;-80
2021/10/02 06:35:32;;;;;;;41.63;24.90;;;12.30;99.90;;;;;;5048633;28;20232;-81
2021/10/02 06:37:59;;;;;;;34.67;22.38;;;12.30;99.90;;;;;;5049036;28;20045;-81
2021/10/02 06:40:25;;;;;;;37.15;24.80;;;12.30;99.90;;;;;;5035351;28;20049;-81
2021/10/02 06:42:52;;;;;;;38.33;25.08;;;12.30;99.90;;;;;;5048298;28;20384;-80
2021/10/02 06:45:19;;;;;;;40.45;24.83;;;12.30;99.90;;;;;;5030694;28;20037;-81
2021/10/02 06:47:45;;;;;;;42.20;26.42;;;12.30;99.90;;;;;;5064089;28;20033;-80
2021/10/02 06:50:11;;;;;;;41.80;28.13;;;12.40;99.90;;;;;;5048569;28;20500;-79
2021/10/02 06:52:37;;;;;;;46.75;29.20;;;12.40;99.90;;;;;;5048061;28;20041;-79
2021/10/02 06:55:03;;;;;;;54.15;30.45;;;12.40;99.90;;;;;;5046672;28;20041;-80
2021/10/02 06:57:29;;;;;;;53.13;31.08;;;12.40;99.90;;;;;;5049859;28;20044;-80
2021/10/02 06:59:55;;;;;;;52.83;31.35;;;12.50;99.90;;;;;;5048821;28;20045;-80
2021/10/02 07:02:21;;;;;;;50.67;31.80;;;12.60;99.90;;;;;;5016113;28;20114;-81
2021/10/02 07:04:49;;;;;;;50.63;31.23;;;12.50;99.90;;;;;;5047217;28;20053;-79
2021/10/02 07:07:15;;;;;;;54.72;31.63;;;12.60;99.90;;;;;;5054079;28;20033;-80
2021/10/02 07:09:41;;;;;;;46.42;28.65;;;12.70;99.90;;;;;;5048214;28;20048;-80
2021/10/02 07:12:07;;;;;;;41.05;27.38;;;12.70;99.90;;;;;;5033138;28;20056;-81
2021/10/02 07:14:33;;;;;;;46.80;27.65;;;12.70;99.90;;;;;;5049910;28;20044;-81
2021/10/02 07:16:58;;;;;;;48.60;28.65;;;12.70;99.90;;;;;;5048482;28;20049;-80
2021/10/02 07:19:24;;;;;;;42.63;26.85;;;12.70;99.90;;;;;;5047859;28;20064;-80
2021/10/02 07:21:50;;;;;;;37.35;27.00;;;12.80;99.90;;;;;;5048189;28;20059;-82
2021/10/02 07:24:16;;;;;;;46.58;28.52;;;12.90;99.90;;;;;;5048931;28;20036;-81
2021/10/02 07:26:43;;;;;;;37.15;27.73;;;13.10;99.90;;;;;;5047781;28;20041;-81
2021/10/02 07:29:10;;;;;;;39.08;26.77;;;13.20;99.90;;;;;;5015885;28;20037;-79
2021/10/02 07:31:36;;;;;;;39.28;26.58;;;13.40;99.90;;;;;;5065228;28;20127;-79
2021/10/02 07:34:02;;;;;;;40.10;27.15;;;13.70;99.90;;;;;;5049957;28;20029;-80
2021/10/02 07:36:29;;;;;;;37.35;26.67;;;13.50;99.90;;;;;;5047511;28;20077;-82
2021/10/02 07:38:55;;;;;;;37.65;26.65;;;13.50;99.90;;;;;;5032206;28;20408;-81
2021/10/02 07:41:24;;;;;;;42.35;27.45;;;13.60;99.90;;;;;;5047863;28;20052;-83
2021/10/02 07:44:02;;;;;;;38.08;25.40;;;13.70;99.90;;;;;;5048950;28;20075;-85
2021/10/02 07:46:31;;;;;;;38.03;25.88;;;13.70;99.90;;;;;;5051456;28;20121;-82
2021/10/02 07:48:57;;;;;;;32.97;25.08;;;13.70;99.90;;;;;;5049471;28;20040;-81
2021/10/02 07:51:25;;;;;;;32.00;24.45;;;13.70;99.90;;;;;;5050039;28;20073;-83
2021/10/02 07:53:52;;;;;;;37.97;24.60;;;13.70;99.90;;;;;;5049684;28;20488;-82
2021/10/02 07:56:19;;;;;;;36.28;25.05;;;13.90;99.90;;;;;;5049878;28;22439;-88
2021/10/02 07:58:47;;;;;;;40.20;24.10;;;13.80;99.90;;;;;;5033356;28;20102;-88
2021/10/02 08:01:14;;;;;;;34.90;24.55;;;13.90;99.90;;;;;;5050855;28;20045;-85
2021/10/02 08:03:41;;;;;;;28.52;22.98;;;13.90;99.90;;;;;;5051006;28;20060;-83
2021/10/02 08:06:07;;;;;;;29.92;22.52;;;13.90;99.90;;;;;;5057876;28;20094;-87
2021/10/02 08:08:35;;;;;;;33.55;23.30;;;13.90;99.90;;;;;;5057814;28;20506;-88
2021/10/02 08:11:03;;;;;;;34.38;23.65;;;14.00;99.90;;;;;;5067102;28;20036;-86
2021/10/02 08:13:29;;;;;;;33.97;21.65;;;14.00;99.90;;;;;;5053941;28;20052;-87
2021/10/02 08:15:57;;;;;;;28.63;21.60;;;14.00;99.90;;;;;;5036957;28;20149;-84
2021/10/02 08:18:27;;;;;;;33.20;23.13;;;14.00;99.90;;;;;;5053749;28;20075;-85
2021/10/02 08:20:54;;;;;;;30.30;22.48;;;13.90;99.90;;;;;;5052751;28;20219;-87
2021/10/02 08:23:23;;;;;;;27.92;21.13;;;14.10;99.90;;;;;;5052481;28;20037;-83
2021/10/02 08:25:50;;;;;;;27.55;21.45;;;14.10;99.90;;;;;;5071837;28;20044;-89
2021/10/02 08:28:17;;;;;;;28.70;20.35;;;14.20;99.90;;;;;;5050229;28;20139;-85
2021/10/02 08:30:45;;;;;;;25.80;19.95;;;14.30;99.90;;;;;;5066970;28;20072;-86
2021/10/02 08:33:11;;;;;;;28.90;21.02;;;14.50;99.90;;;;;;5030444;28;20128;-84
2021/10/02 08:35:38;;;;;;;30.35;20.77;;;14.40;99.90;;;;;;5034989;28;20402;-86
2021/10/02 08:38:05;;;;;;;27.08;20.50;;;14.50;99.90;;;;;;5038036;28;20050;-84
2021/10/02 08:40:31;;;;;;;22.25;18.83;;;14.50;99.90;;;;;;5036310;28;20061;-85
2021/10/02 08:42:57;;;;;;;24.52;17.67;;;14.50;99.90;;;;;;5069628;28;20094;-86
2021/10/02 08:45:23;;;;;;;25.55;17.70;;;14.70;99.90;;;;;;5051800;28;20364;-82
2021/10/02 08:47:48;;;;;;;18.65;16.55;;;14.70;99.90;;;;;;5052207;28;20049;-83
2021/10/02 08:50:18;;;;;;;22.05;15.60;;;14.80;99.90;;;;;;5051856;28;20129;-81
2021/10/02 08:52:48;;;;;;;20.48;14.95;;;14.80;99.90;;;;;;5054007;28;20162;-83
2021/10/02 08:55:14;;;;;;;18.63;15.50;;;15.00;99.90;;;;;;5055017;28;20056;-84
2021/10/02 08:57:42;;;;;;;17.92;15.27;;;15.00;99.90;;;;;;5072868;28;20032;-82
2021/10/02 09:00:11;;;;;;;19.92;14.40;;;15.00;99.90;;;;;;5055975;28;20049;-84
2021/10/02 09:02:38;;;;;;;17.45;12.93;;;14.90;99.90;;;;;;5055132;28;20041;-83
2021/10/02 09:05:06;;;;;;;17.27;13.50;;;14.80;99.90;;;;;;5071939;28;20475;-84
2021/10/02 09:07:32;;;;;;;17.33;12.73;;;14.80;99.90;;;;;;5050815;28;20052;-84
2021/10/02 09:10:02;;;;;;;16.60;12.57;;;14.80;99.90;;;;;;5035273;28;20049;-82
2021/10/02 09:12:28;;;;;;;18.13;13.50;;;14.80;99.90;;;;;;5052809;28;20052;-85
2021/10/02 09:14:56;;;;;;;17.75;13.00;;;14.70;99.90;;;;;;5036105;28;20041;-82
2021/10/02 09:17:23;;;;;;;16.88;12.60;;;14.80;99.90;;;;;;5050415;28;20057;-85
2021/10/02 09:19:49;;;;;;;17.42;11.23;;;15.00;99.90;;;;;;5052168;28;20141;-86
2021/10/02 09:22:18;;;;;;;15.90;11.13;;;15.00;99.90;;;;;;5049602;28;20095;-83
2021/10/02 09:24:45;;;;;;;16.92;10.70;;;15.00;99.90;;;;;;5053156;28;20040;-84
2021/10/02 09:27:17;;;;;;;17.30;11.15;;;15.20;99.90;;;;;;5052288;28;20041;-85
2021/10/02 09:29:49;;;;;;;14.90;8.65;;;15.40;99.90;;;;;;5051771;28;20052;-85
2021/10/02 09:32:19;;;;;;;13.82;7.90;;;15.50;99.90;;;;;;5050355;28;20364;-84
2021/10/02 09:34:47;;;;;;;12.93;8.77;;;15.60;99.90;;;;;;5033957;28;20057;-79
2021/10/02 09:37:16;;;;;;;11.93;6.28;;;15.60;99.90;;;;;;5051166;28;20045;-77
2021/10/02 09:39:43;;;;;;;14.90;7.60;;;16.00;99.90;;;;;;5053132;28;20132;-78
2021/10/02 09:42:22;;;;;;;13.95;7.45;;;16.20;99.90;;;;;;5048209;28;20128;-78
2021/10/02 09:44:48;;;;;;;14.95;5.80;;;16.50;99.90;;;;;;5064325;28;20068;-80
2021/10/02 09:47:18;;;;;;;13.02;5.32;;;16.60;99.90;;;;;;5049534;28;20488;-79
2021/10/02 09:49:46;;;;;;;16.67;7.75;;;16.60;99.90;;;;;;5049240;28;20047;-77
2021/10/02 09:52:38;;;;;;;10.43;5.03;;;16.70;99.90;;;;;;5039928;28;20372;-78
2021/10/02 09:55:24;;;;;;;10.80;5.00;;;16.80;99.90;;;;;;5049192;28;20129;-76
2021/10/02 09:58:37;;;;;;;7.10;4.55;;;16.90;99.90;;;;;;5050485;28;20400;-80
2021/10/02 10:01:08;;;;;;;9.52;5.40;;;17.00;99.90;;;;;;5031072;28;20087;-79
2021/10/02 10:03:45;;;;;;;15.07;6.47;;;17.00;99.90;;;;;;5048457;28;20122;-79
2021/10/02 10:06:37;;;;;;;12.80;4.97;;;17.20;99.90;;;;;;5064838;28;20389;-78
2021/10/02 10:09:10;;;;;;;11.10;6.05;;;17.30;99.90;;;;;;5044703;28;20555;-76
2021/10/02 10:11:44;;;;;;;14.23;7.40;;;17.30;99.90;;;;;;5050272;28;20131;-79
2021/10/02 10:14:20;;;;;;;;;;;17.40;99.90;;;;;;5048468;28;20132;-81
2021/10/02 10:16:46;;;;;;;;;;;17.60;99.90;;;;;;5032406;28;19924;-78
2021/10/02 10:19:27;;;;;;;29.33;7.30;;;17.30;99.90;;;;;;5049467;28;19917;-79
2021/10/02 10:22:14;;;;;;;14.07;5.55;;;17.40;99.90;;;;;;5065450;28;20099;-78
2021/10/02 10:24:50;;;;;;;10.07;7.05;;;17.50;99.90;;;;;;5033351;28;20067;-79
2021/10/02 10:27:35;;;;;;;14.77;8.20;;;17.40;99.90;;;;;;5041359;28;20052;-78
2021/10/02 10:30:10;;;;;;;12.48;7.00;;;17.50;99.90;;;;;;5050983;28;20469;-78
2021/10/02 10:32:38;;;;;;;12.98;6.72;;;17.50;99.90;;;;;;5049689;28;20111;-78
2021/10/02 10:35:05;;;;;;;15.70;8.10;;;17.70;99.90;;;;;;5031303;28;20047;-80
2021/10/02 10:37:31;;;;;;;17.35;10.15;;;17.60;99.90;;;;;;5048171;28;20124;-81
2021/10/02 10:39:57;;;;;;;14.75;9.30;;;17.70;99.90;;;;;;5029792;28;20068;-79
2021/10/02 10:42:28;;;;;;;15.45;7.57;;;17.80;99.90;;;;;;5048738;28;20443;-79
2021/10/02 10:44:56;;;;;;;12.52;6.28;;;17.70;99.90;;;;;;5046938;28;20049;-78
2021/10/02 10:47:23;;;;;;;13.32;5.85;;;17.70;99.90;;;;;;5048004;28;20049;-78
2021/10/02 10:49:50;;;;;;;14.52;7.75;;;18.00;99.90;;;;;;5049376;28;20039;-78
2021/10/02 10:52:17;;;;;;;13.43;6.05;;;18.00;99.90;;;;;;5049259;28;20111;-80
2021/10/02 10:54:44;;;;;;;12.25;6.00;;;18.00;99.90;;;;;;5030576;28;20056;-78
2021/10/02 10:57:36;;;;;;;9.07;4.45;;;18.20;99.90;;;;;;5045407;28;20124;-76
2021/10/02 11:00:13;;;;;;;9.50;4.90;;;18.00;99.90;;;;;;5046098;28;20076;-80
2021/10/02 11:02:48;;;;;;;11.73;3.88;;;18.10;99.90;;;;;;5045408;28;20045;-79
2021/10/02 11:05:36;;;;;;;10.80;3.65;;;18.10;99.90;;;;;;5026776;28;20040;-79
2021/10/02 11:08:10;;;;;;;7.25;3.20;;;18.20;99.90;;;;;;5035747;28;20056;-79
2021/10/02 11:10:45;;;;;;;8.07;3.08;;;18.10;99.90;;;;;;5034401;28;20048;-78
2021/10/02 11:13:35;;;;;;;7.18;3.45;;;18.20;99.90;;;;;;5051867;28;20040;-79
2021/10/02 11:16:44;;;;;;;10.35;4.55;;;18.20;99.90;;;;;;4974141;28;20191;-79
2021/10/02 11:19:28;;;;;;;6.90;3.60;;;18.20;99.90;;;;;;4989148;28;20050;-78
2021/10/02 11:22:00;;;;;;;8.63;4.88;;;18.40;99.90;;;;;;4974630;28;20050;-81
2021/10/02 11:24:41;;;;;;;10.40;3.88;;;18.20;99.90;;;;;;4988039;28;20053;-78
2021/10/02 11:27:07;;;;;;;10.00;4.28;;;18.20;99.90;;;;;;5006078;28;20041;-78
2021/10/02 11:29:38;;;;;;;12.40;4.18;;;18.20;99.90;;;;;;4991058;28;20237;-76
2021/10/02 11:32:31;;;;;;;9.55;3.80;;;18.10;99.90;;;;;;4989966;28;20576;-80
2021/10/02 11:35:25;;;;;;;8.77;4.05;;;18.00;99.90;;;;;;4981807;28;20050;-80
2021/10/02 11:37:57;;;;;;;6.85;3.25;;;17.90;99.90;;;;;;4992428;28;20257;-80
2021/10/02 11:40:40;;;;;;;8.82;3.67;;;18.00;99.90;;;;;;4992480;28;20078;-79
2021/10/02 11:43:15;;;;;;;11.57;4.18;;;18.00;99.90;;;;;;5006130;28;20173;-87
2021/10/02 11:57:21;;;;;;;7.45;3.00;;;17.80;99.90;;;;;;5147706;27;20448;-82
2021/10/02 11:59:47;;;;;;;5.85;2.80;;;17.80;99.90;;;;;;5100367;28;20048;-79
2021/10/02 12:02:14;;;;;;;7.82;2.85;;;17.90;99.90;;;;;;5094093;28;20075;-81
2021/10/02 12:04:40;;;;;;;6.90;2.78;;;18.10;99.90;;;;;;5139909;27;20384;-80
2021/10/02 12:07:07;;;;;;;8.77;3.00;;;18.00;99.90;;;;;;5125762;27;20039;-79
2021/10/02 12:09:35;;;;;;;7.32;2.80;;;18.00;99.90;;;;;;5148053;27;20027;-78
2021/10/02 12:12:06;;;;;;;9.60;2.97;;;18.00;99.90;;;;;;5113727;27;20564;-85
2021/10/02 12:14:35;;;;;;;8.70;3.33;;;17.80;99.90;;;;;;5104568;27;20099;-84
2021/10/02 12:17:03;;;;;;;6.00;2.83;;;17.60;99.90;;;;;;5113186;27;20047;-85
2021/10/02 12:19:31;;;;;;;7.60;2.75;;;17.50;99.90;;;;;;5113109;27;20050;-86
2021/10/02 12:21:59;;;;;;;9.75;2.95;;;17.40;99.90;;;;;;5114138;27;20142;-84
2021/10/02 12:24:25;;;;;;;8.20;2.75;;;17.30;99.90;;;;;;5116421;28;20043;-85
2021/10/02 12:26:59;;;;;;;9.98;2.70;;;17.30;99.90;;;;;;5137845;27;20557;-83
2021/10/02 12:29:31;;;;;;;5.32;2.65;;;17.20;99.90;;;;;;5112910;27;20154;-85
2021/10/02 12:32:23;;;;;;;6.70;2.58;;;17.20;99.90;;;;;;5130495;27;20138;-84
2021/10/02 12:34:53;;;;;;;9.38;2.63;;;17.10;99.90;;;;;;5106948;28;20090;-84
2021/10/02 12:37:24;;;;;;;7.95;2.83;;;17.10;99.90;;;;;;5110772;28;20115;-85
2021/10/02 12:39:57;;;;;;;8.05;2.65;;;17.10;99.90;;;;;;5110639;28;20453;-84
2021/10/02 12:42:35;;;;;;;14.68;2.70;;;17.10;99.90;;;;;;5093240;28;20146;-83
2021/10/02 12:45:12;;;;;;;11.40;2.85;;;17.10;99.90;;;;;;5095191;27;20043;-85
2021/10/02 12:47:39;;;;;;;9.60;2.92;;;17.00;99.90;;;;;;5147033;27;20183;-83
2021/10/02 12:50:11;;;;;;;9.20;2.70;;;17.00;99.90;;;;;;5127365;27;20043;-85
2021/10/02 12:52:38;;;;;;;7.65;2.38;;;16.90;99.90;;;;;;5128449;27;20494;-88
2021/10/02 12:55:13;;;;;;;6.15;2.30;;;16.80;99.90;;;;;;5109591;27;20057;-85
2021/10/02 12:57:41;;;;;;;6.15;2.40;;;16.80;99.90;;;;;;5104042;27;20138;-86
2021/10/02 13:00:16;;;;;;;8.15;2.72;;;16.80;99.90;;;;;;5114080;27;20078;-83
2021/10/02 13:02:57;;;;;;;9.15;2.95;;;16.70;99.90;;;;;;5098174;27;21028;-84
2021/10/02 13:05:26;;;;;;;7.40;2.47;;;16.70;99.90;;;;;;5108596;28;20490;-85
2021/10/02 13:08:00;;;;;;;11.48;2.60;;;16.70;99.90;;;;;;5108502;27;20124;-83
2021/10/02 13:10:26;;;;;;;9.90;2.63;;;16.70;99.90;;;;;;5097726;27;20076;-85
2021/10/02 13:13:13;;;;;;;9.13;2.60;;;16.60;99.90;;;;;;5126283;27;20045;-85
2021/10/02 13:15:50;;;;;;;7.80;2.38;;;16.60;99.90;;;;;;5093943;27;20166;-84
2021/10/02 13:18:17;;;;;;;;;;;16.60;99.90;;;;;;5099826;27;20055;-83
2021/10/02 13:20:43;;;;;;;9.55;2.85;;;16.60;99.90;;;;;;5115307;27;20728;-85
2021/10/02 13:23:16;;;;;;;10.98;2.88;;;16.60;99.90;;;;;;5092709;27;20047;-79
2021/10/02 13:26:03;;;;;;;6.68;2.95;;;16.70;99.90;;;;;;5096583;27;20051;-80
2021/10/02 13:28:43;;;;;;;10.98;3.38;;;17.10;99.90;;;;;;5096871;27;20055;-79
2021/10/02 13:31:14;;;;;;;6.85;2.70;;;17.20;99.90;;;;;;5109211;27;20043;-79
2021/10/02 13:33:46;;;;;;;8.80;3.20;;;17.40;99.90;;;;;;5096320;27;20619;-80
2021/10/02 13:36:29;;;;;;;8.85;2.90;;;17.50;99.90;;;;;;5088387;27;20051;-79
2021/10/02 13:39:10;;;;;;;8.38;2.65;;;17.50;99.90;;;;;;5110412;27;20181;-78
2021/10/02 13:41:36;;;;;;;8.15;2.67;;;17.50;99.90;;;;;;5114754;27;20047;-78
2021/10/02 13:44:04;;;;;;;8.02;2.80;;;17.40;99.90;;;;;;5113383;27;20043;-77
2021/10/02 13:46:31;;;;;;;8.25;2.50;;;17.40;99.90;;;;;;5109042;27;20500;-80
2021/10/02 13:48:58;;;;;;;7.38;2.60;;;17.30;99.90;;;;;;5076207;27;20050;-81
2021/10/02 13:51:24;;;;;;;8.55;2.78;;;17.50;99.90;;;;;;5088172;27;20127;-78
2021/10/02 13:53:50;;;;;;;6.45;2.42;;;17.50;99.90;;;;;;5110496;27;20073;-75